Time;durP1;ratioP1;P1;durP2;ratioP2;P2;SDS_P1;SDS_P2;PMS_P1;PMS_P2;Temp;Humidity;BMP_temperature;BMP_pressure;BME280_temperature;BME280_humidity;BME280_pressure;Samples;Min_cycle;Max_cycle;Signal;HPM_P1;HPM_P2
2022/08/04 00:00:25;;;;;;;16.35;5.30;;;21.40;99.90;;;;;;4954465;28;20488;-81
2022/08/04 00:03:12;;;;;;;13.48;5.60;;;21.40;99.90;;;;;;4970559;28;20024;-80
2022/08/04 00:05:58;;;;;;;18.35;5.38;;;21.30;99.90;;;;;;4971867;28;20038;-80
2022/08/04 00:08:45;;;;;;;12.45;5.47;;;21.30;99.90;;;;;;4971597;28;20074;-80
2022/08/04 00:11:19;;;;;;;19.48;5.07;;;21.30;99.90;;;;;;4972630;28;20031;-81
2022/08/04 00:13:53;;;;;;;26.80;5.93;;;21.30;99.90;;;;;;4971646;28;20035;-80
2022/08/04 00:16:26;;;;;;;11.48;6.05;;;21.30;99.90;;;;;;4952841;28;20051;-80
2022/08/04 00:18:58;;;;;;;11.57;5.72;;;21.20;99.90;;;;;;4973011;28;20030;-79
2022/08/04 00:21:25;;;;;;;9.85;4.95;;;21.10;99.90;;;;;;4973849;28;20028;-80
2022/08/04 00:23:55;;;;;;;15.43;6.10;;;21.20;99.90;;;;;;4956160;28;20023;-83
2022/08/04 00:26:21;;;;;;;15.63;6.35;;;21.10;99.90;;;;;;4958158;28;20027;-80
2022/08/04 00:28:47;;;;;;;12.82;5.35;;;21.10;99.90;;;;;;4973692;28;20036;-80
2022/08/04 00:31:14;;;;;;;11.48;6.43;;;20.90;99.90;;;;;;4956589;28;20026;-81
2022/08/04 00:33:48;;;;;;;12.02;6.75;;;21.00;99.90;;;;;;4957738;28;20221;-81
2022/08/04 00:36:16;;;;;;;14.35;5.80;;;21.00;99.90;;;;;;4956512;28;20058;-80
2022/08/04 00:38:43;;;;;;;16.95;5.60;;;21.10;99.90;;;;;;4957082;28;20034;-81
2022/08/04 00:41:19;;;;;;;15.80;5.25;;;21.10;99.90;;;;;;4957287;28;20024;-80
2022/08/04 00:44:04;;;;;;;13.68;5.43;;;21.00;99.90;;;;;;4973619;28;20039;-81
2022/08/04 00:46:44;;;;;;;15.77;5.75;;;21.00;99.90;;;;;;4957296;28;21028;-80
2022/08/04 00:49:38;;;;;;;22.83;5.97;;;21.00;99.90;;;;;;4955936;28;20031;-80
2022/08/04 00:52:29;;;;;;;17.88;6.80;;;20.90;99.90;;;;;;4956062;28;20487;-81
2022/08/04 00:55:07;;;;;;;21.65;5.80;;;21.00;99.90;;;;;;4974388;28;20054;-80
2022/08/04 00:58:04;;;;;;;24.30;5.75;;;21.00;99.90;;;;;;4956252;28;20043;-81
2022/08/04 01:00:42;;;;;;;20.92;6.28;;;20.90;99.90;;;;;;4956566;28;20074;-80
2022/08/04 01:03:17;;;;;;;16.65;5.25;;;20.90;99.90;;;;;;4957206;28;20031;-81
2022/08/04 01:06:29;;;;;;;24.67;7.10;;;20.80;99.90;;;;;;4976675;28;20030;-80
2022/08/04 01:09:00;;;;;;;9.48;6.32;;;20.90;99.90;;;;;;4953216;28;20045;-79
2022/08/04 01:11:44;;;;;;;13.80;5.82;;;20.80;99.90;;;;;;4973545;28;20046;-79
2022/08/04 01:14:41;;;;;;;12.27;6.43;;;20.80;99.90;;;;;;4956392;28;20095;-82
2022/08/04 01:17:14;;;;;;;12.95;6.47;;;20.80;99.90;;;;;;4956957;28;20066;-80
2022/08/04 01:19:56;;;;;;;25.10;6.63;;;20.80;99.90;;;;;;4972497;28;20555;-83
2022/08/04 01:22:31;;;;;;;14.88;5.47;;;20.90;99.90;;;;;;4973497;28;20054;-79
2022/08/04 01:24:56;;;;;;;13.25;5.72;;;20.60;99.90;;;;;;4955618;28;20034;-79
2022/08/04 01:27:53;;;;;;;8.27;5.63;;;20.80;99.90;;;;;;4972703;28;20117;-81
2022/08/04 01:30:19;;;;;;;12.38;5.90;;;20.80;99.90;;;;;;4972774;28;20027;-80
2022/08/04 01:32:50;;;;;;;12.18;6.10;;;20.70;99.90;;;;;;4973928;28;20030;-81
2022/08/04 01:35:48;;;;;;;15.57;5.93;;;20.80;99.90;;;;;;4973777;28;20053;-79
2022/08/04 01:38:27;;;;;;;13.48;6.18;;;20.70;99.90;;;;;;4952524;28;20096;-79
2022/08/04 01:40:55;;;;;;;13.98;6.88;;;20.80;99.90;;;;;;4974176;28;20415;-80
2022/08/04 01:43:23;;;;;;;10.85;6.05;;;20.80;99.90;;;;;;4956604;28;20042;-78
2022/08/04 01:45:50;;;;;;;14.48;6.47;;;20.70;99.90;;;;;;4973367;28;20039;-79
2022/08/04 01:51:07;;;;;;;15.50;6.85;;;20.80;99.90;;;;;;5098056;27;20431;-79
2022/08/04 01:53:35;;;;;;;12.68;7.03;;;20.80;99.90;;;;;;5097724;28;20040;-79
2022/08/04 01:56:02;;;;;;;9.50;5.60;;;20.70;99.90;;;;;;5096704;28;20100;-80
2022/08/04 01:58:30;;;;;;;10.98;5.85;;;20.70;99.90;;;;;;5096549;28;20052;-80
2022/08/04 02:01:01;;;;;;;11.70;6.35;;;20.70;99.90;;;;;;5098042;28;20024;-79
2022/08/04 02:03:30;;;;;;;28.50;7.80;;;20.60;99.90;;;;;;5098236;28;20013;-81
2022/08/04 02:06:36;;;;;;;14.10;7.05;;;20.50;99.90;;;;;;5094975;28;20025;-79
2022/08/04 02:09:16;;;;;;;23.17;6.97;;;20.50;99.90;;;;;;5097800;28;20032;-79
2022/08/04 02:12:06;;;;;;;12.45;7.20;;;20.40;99.90;;;;;;5096307;28;20024;-79
2022/08/04 02:14:48;;;;;;;15.13;6.57;;;20.40;99.90;;;;;;5095949;28;20013;-79
2022/08/04 02:17:39;;;;;;;13.60;7.00;;;20.40;99.90;;;;;;5098029;28;20024;-80
2022/08/04 02:20:14;;;;;;;21.50;7.03;;;20.40;99.90;;;;;;5096145;28;20649;-79
2022/08/04 02:22:44;;;;;;;;;;;20.40;99.90;;;;;;5097856;28;20036;-79
2022/08/04 02:25:10;;;;;;;13.13;7.18;;;20.40;99.90;;;;;;5097552;28;20317;-79
2022/08/04 02:28:08;;;;;;;15.18;6.97;;;20.40;99.90;;;;;;5095742;28;20040;-79
2022/08/04 02:30:40;;;;;;;12.73;6.80;;;20.40;99.90;;;;;;5097276;28;20028;-79
2022/08/04 02:33:08;;;;;;;19.40;6.65;;;20.40;99.90;;;;;;5097635;28;20087;-79
2022/08/04 02:35:39;;;;;;;13.98;6.88;;;20.30;99.90;;;;;;5095317;28;20380;-79
2022/08/04 02:38:08;;;;;;;13.88;6.20;;;20.30;99.90;;;;;;5097253;28;20020;-79
2022/08/04 02:40:34;;;;;;;15.73;6.68;;;20.20;99.90;;;;;;5094932;28;20024;-80
2022/08/04 02:43:03;;;;;;;15.15;6.32;;;20.20;99.90;;;;;;5097166;28;20414;-80
2022/08/04 02:45:30;;;;;;;13.23;6.65;;;20.20;99.90;;;;;;5095607;28;20028;-80
2022/08/04 02:47:58;;;;;;;18.63;7.20;;;20.20;99.90;;;;;;5095377;28;20024;-80
2022/08/04 02:50:25;;;;;;;15.45;6.43;;;20.20;99.90;;;;;;5096159;28;20044;-81
2022/08/04 02:52:51;;;;;;;12.68;6.32;;;20.20;99.90;;;;;;5097199;28;20040;-81
2022/08/04 02:55:17;;;;;;;10.52;5.80;;;20.20;99.90;;;;;;5096495;28;20059;-81
2022/08/04 02:57:46;;;;;;;15.65;6.38;;;20.10;99.90;;;;;;5094037;28;20104;-81
2022/08/04 03:00:13;;;;;;;16.60;6.43;;;20.10;99.90;;;;;;5095252;28;20021;-81
2022/08/04 03:02:57;;;;;;;10.82;6.32;;;20.00;99.90;;;;;;5083086;28;20025;-85
2022/08/04 03:05:36;;;;;;;14.50;6.80;;;20.00;99.90;;;;;;5081747;28;20024;-83
2022/08/04 03:08:35;;;;;;;11.32;6.32;;;20.00;99.90;;;;;;5082160;28;20044;-82
2022/08/04 03:11:36;;;;;;;12.48;5.00;;;20.10;99.90;;;;;;5082404;28;20099;-81
2022/08/04 03:14:43;;;;;;;16.48;6.93;;;20.10;99.90;;;;;;5081658;28;20040;-79
2022/08/04 03:17:42;;;;;;;11.63;5.68;;;20.00;99.90;;;;;;5083124;28;20051;-84
2022/08/04 03:20:19;;;;;;;14.85;6.90;;;20.00;99.90;;;;;;5083295;28;20029;-80
2022/08/04 03:23:16;;;;;;;14.52;6.78;;;20.00;99.90;;;;;;5081254;28;20327;-80
2022/08/04 03:26:03;;;;;;;8.88;5.32;;;20.00;99.90;;;;;;5080431;28;20025;-81
2022/08/04 03:28:47;;;;;;;10.77;6.05;;;20.00;99.90;;;;;;5081481;28;20040;-80
2022/08/04 03:31:44;;;;;;;12.03;5.77;;;20.00;99.90;;;;;;5081155;28;20096;-82
2022/08/04 03:34:50;;;;;;;17.05;5.65;;;20.00;99.90;;;;;;5081077;28;20275;-81
2022/08/04 03:37:29;;;;;;;15.70;5.95;;;19.90;99.90;;;;;;5080825;28;20033;-82
2022/08/04 03:40:32;;;;;;;19.52;6.25;;;19.90;99.90;;;;;;5080685;28;20095;-83
2022/08/04 03:43:39;;;;;;;11.48;5.88;;;19.90;99.90;;;;;;5081179;28;20853;-84
2022/08/04 03:46:38;;;;;;;11.15;6.38;;;19.90;99.90;;;;;;5080236;28;20484;-80
2022/08/04 03:49:48;;;;;;;13.70;5.65;;;19.90;99.90;;;;;;5082517;28;20059;-84
2022/08/04 03:55:29;;;;;;;8.70;4.57;;;19.90;99.90;;;;;;5082529;28;20043;-83
2022/08/04 03:58:26;;;;;;;11.82;5.22;;;20.00;99.90;;;;;;5077981;28;20036;-82
2022/08/04 04:01:28;;;;;;;13.68;6.78;;;20.00;99.90;;;;;;5075509;28;20037;-78
2022/08/04 04:04:32;;;;;;;12.77;5.70;;;19.90;99.90;;;;;;5080143;28;20123;-80
2022/08/04 04:07:24;;;;;;;10.20;5.78;;;20.00;99.90;;;;;;5079634;28;20522;-79
2022/08/04 04:09:53;;;;;;;13.20;5.70;;;20.00;99.90;;;;;;5081956;28;20029;-80
2022/08/04 04:12:29;;;;;;;13.65;6.50;;;20.00;99.90;;;;;;5080889;28;20084;-81
2022/08/04 04:15:33;;;;;;;16.05;5.28;;;20.00;99.90;;;;;;5074929;28;20088;-81
2022/08/04 04:18:26;;;;;;;11.13;5.67;;;20.10;99.90;;;;;;5078613;28;20050;-81
2022/08/04 04:21:35;;;;;;;12.15;5.30;;;20.10;99.90;;;;;;5076375;28;20081;-79
2022/08/04 04:24:23;;;;;;;25.45;5.70;;;20.10;99.90;;;;;;5079430;28;20032;-81
2022/08/04 04:26:58;;;;;;;10.57;4.65;;;20.10;99.90;;;;;;5080742;28;20033;-76
2022/08/04 04:29:55;;;;;;;7.72;5.20;;;20.10;99.90;;;;;;5079123;28;20048;-77
2022/08/04 04:32:31;;;;;;;11.05;5.20;;;20.10;99.90;;;;;;5079361;28;20119;-77
2022/08/04 04:35:18;;;;;;;10.07;5.30;;;20.10;99.90;;;;;;5075524;28;20034;-76
2022/08/04 04:37:55;;;;;;;14.55;5.57;;;20.10;99.90;;;;;;5076356;28;20124;-77
2022/08/04 04:40:38;;;;;;;12.77;5.43;;;20.20;99.90;;;;;;5079113;28;20052;-77
2022/08/04 04:43:50;;;;;;;14.07;6.22;;;20.20;99.90;;;;;;5078138;28;20127;-77
2022/08/04 04:46:37;;;;;;;11.65;5.45;;;20.20;99.90;;;;;;5075272;28;20071;-77
2022/08/04 04:49:27;;;;;;;10.15;5.82;;;20.30;99.90;;;;;;5079076;28;20052;-77
2022/08/04 04:52:24;;;;;;;9.75;4.90;;;20.30;99.90;;;;;;5078863;28;20036;-78
2022/08/04 04:54:55;;;;;;;11.82;4.80;;;20.30;99.90;;;;;;5080919;28;20082;-76
2022/08/04 04:57:22;;;;;;;8.52;4.68;;;20.40;99.90;;;;;;5078596;28;20032;-74
2022/08/04 04:59:54;;;;;;;8.55;4.25;;;20.40;99.90;;;;;;5079543;28;20036;-75
2022/08/04 05:02:39;;;;;;;9.52;4.30;;;20.40;99.90;;;;;;5078695;28;20029;-74
2022/08/04 05:05:19;;;;;;;12.65;4.20;;;20.40;99.90;;;;;;5081124;28;20393;-73
2022/08/04 05:07:58;;;;;;;9.43;4.72;;;20.40;99.90;;;;;;5076573;28;20036;-74
2022/08/04 05:10:27;;;;;;;5.45;3.92;;;20.40;99.90;;;;;;5077167;28;20060;-74
2022/08/04 05:13:18;;;;;;;9.63;5.20;;;20.50;99.90;;;;;;5079801;28;20056;-76
2022/08/04 05:15:46;;;;;;;8.88;4.25;;;20.50;99.90;;;;;;5080934;28;20028;-77
2022/08/04 05:18:23;;;;;;;13.57;4.57;;;20.50;99.90;;;;;;5080446;28;20028;-76
2022/08/04 05:20:55;;;;;;;10.98;4.75;;;20.40;99.90;;;;;;5078959;28;20067;-74
2022/08/04 05:23:32;;;;;;;8.60;4.30;;;20.50;99.90;;;;;;5078962;28;20084;-75
2022/08/04 05:26:10;;;;;;;8.35;4.65;;;20.50;99.90;;;;;;5081024;28;20177;-73
2022/08/04 05:28:47;;;;;;;8.93;4.35;;;20.50;99.90;;;;;;5079058;28;20044;-73
2022/08/04 05:31:18;;;;;;;6.50;3.60;;;20.50;99.90;;;;;;5077287;28;20035;-72
2022/08/04 05:33:54;;;;;;;12.55;3.75;;;20.50;99.90;;;;;;5078924;28;20389;-74
2022/08/04 05:36:32;;;;;;;6.60;3.35;;;20.50;99.90;;;;;;5078547;28;20104;-75
2022/08/04 05:38:59;;;;;;;6.95;3.60;;;20.50;99.90;;;;;;5077760;28;20024;-75
2022/08/04 05:41:27;;;;;;;6.03;3.40;;;20.60;99.90;;;;;;5078405;28;20029;-74
2022/08/04 05:43:54;;;;;;;12.27;3.60;;;20.60;99.90;;;;;;5076535;28;20025;-75
2022/08/04 05:46:20;;;;;;;14.77;4.22;;;20.70;99.90;;;;;;5078280;28;20129;-74
2022/08/04 05:48:47;;;;;;;9.15;3.38;;;20.70;99.90;;;;;;5076492;28;20075;-76
2022/08/04 05:51:14;;;;;;;5.22;3.38;;;20.70;99.90;;;;;;5078401;28;20029;-75
2022/08/04 05:53:43;;;;;;;12.98;3.75;;;20.80;99.90;;;;;;5079709;28;20032;-75
2022/08/04 05:56:12;;;;;;;6.97;3.50;;;20.80;99.90;;;;;;5077350;28;20106;-74
2022/08/04 05:58:39;;;;;;;13.75;4.15;;;20.90;99.90;;;;;;5080521;28;20024;-74
2022/08/04 06:01:07;;;;;;;8.13;3.10;;;21.00;99.90;;;;;;5080308;28;20534;-73
2022/08/04 06:03:34;;;;;;;8.68;3.22;;;21.10;99.90;;;;;;5079903;28;20016;-74
2022/08/04 06:06:02;;;;;;;5.60;2.95;;;21.10;99.90;;;;;;5080123;28;20472;-73
2022/08/04 06:08:29;;;;;;;5.75;3.30;;;21.20;99.90;;;;;;5078244;28;20020;-76
2022/08/04 06:10:57;;;;;;;5.95;3.10;;;21.30;99.90;;;;;;5079950;28;20032;-75
2022/08/04 06:13:29;;;;;;;4.68;2.97;;;21.30;99.90;;;;;;5078535;28;20056;-75
2022/08/04 06:16:00;;;;;;;12.68;4.35;;;21.40;99.90;;;;;;5080076;28;20023;-74
2022/08/04 06:18:32;;;;;;;6.22;3.30;;;21.50;99.90;;;;;;5079717;28;20027;-75
2022/08/04 06:21:01;;;;;;;8.60;3.25;;;21.60;99.90;;;;;;5079932;28;20025;-74
2022/08/04 06:23:30;;;;;;;4.95;2.78;;;21.70;99.90;;;;;;5079425;28;20020;-77
2022/08/04 06:26:01;;;;;;;5.57;2.67;;;21.80;99.90;;;;;;5079458;28;20016;-74
2022/08/04 06:28:28;;;;;;;5.22;2.78;;;21.80;99.90;;;;;;5080281;28;20020;-73
2022/08/04 06:31:01;;;;;;;7.63;3.30;;;22.00;99.90;;;;;;5080160;28;20087;-73
2022/08/04 06:33:33;;;;;;;8.57;2.83;;;22.10;99.90;;;;;;5078066;28;20021;-72
2022/08/04 06:36:01;;;;;;;7.85;2.50;;;22.10;99.90;;;;;;5079450;28;20039;-75
2022/08/04 06:38:29;;;;;;;3.25;2.25;;;22.10;99.90;;;;;;5081540;28;20029;-74
2022/08/04 06:40:59;;;;;;;3.75;2.05;;;22.30;99.90;;;;;;5079662;28;20040;-76
2022/08/04 06:43:26;;;;;;;19.90;3.00;;;22.30;99.90;;;;;;5082168;28;20029;-78
2022/08/04 06:45:53;;;;;;;18.95;3.10;;;22.40;99.90;;;;;;5082956;28;20029;-71
2022/08/04 06:48:20;;;;;;;9.20;2.50;;;22.50;99.90;;;;;;5081414;28;20031;-75
2022/08/04 06:50:48;;;;;;;4.88;2.30;;;22.60;99.90;;;;;;5081834;28;20044;-76
2022/08/04 06:53:14;;;;;;;9.40;3.08;;;22.70;99.90;;;;;;5082779;28;20020;-77
2022/08/04 06:55:43;;;;;;;4.43;2.65;;;22.70;99.90;;;;;;5083783;28;20020;-77
2022/08/04 06:58:11;;;;;;;6.25;3.00;;;22.90;99.90;;;;;;5083188;28;20454;-78
2022/08/04 07:00:39;;;;;;;6.25;2.55;;;22.90;99.90;;;;;;5083187;28;20107;-77
2022/08/04 07:03:06;;;;;;;12.27;2.65;;;23.00;99.90;;;;;;5081611;28;20088;-78
2022/08/04 07:05:32;;;;;;;5.45;2.53;;;23.00;99.90;;;;;;5081402;28;20032;-78
2022/08/04 07:07:58;;;;;;;4.18;2.03;;;23.10;99.90;;;;;;5082720;28;20024;-78
2022/08/04 07:10:26;;;;;;;6.25;2.88;;;23.20;99.90;;;;;;5079926;28;20033;-79
2022/08/04 07:12:53;;;;;;;9.07;1.95;;;23.30;99.90;;;;;;5081495;28;20044;-79
2022/08/04 07:15:24;;;;;;;5.50;3.05;;;23.50;99.90;;;;;;5081436;28;20029;-77
2022/08/04 07:17:51;;;;;;;2.95;1.98;;;23.60;99.90;;;;;;5081540;28;20467;-79
2022/08/04 07:20:18;;;;;;;4.32;2.10;;;23.70;99.90;;;;;;5078619;28;20029;-80
2022/08/04 07:22:46;;;;;;;3.03;2.38;;;23.90;99.90;;;;;;5081923;28;20047;-81
2022/08/04 07:25:14;;;;;;;3.53;2.15;;;24.10;99.90;;;;;;5081160;28;20046;-80
2022/08/04 07:27:41;;;;;;;4.10;2.22;;;24.10;99.90;;;;;;5081423;28;20036;-77
2022/08/04 07:30:08;;;;;;;5.97;2.22;;;24.20;99.90;;;;;;5082604;28;20413;-75
2022/08/04 07:32:34;;;;;;;6.43;2.45;;;24.30;99.90;;;;;;5081220;28;20033;-78
2022/08/04 07:35:01;;;;;;;3.97;2.28;;;24.40;99.90;;;;;;5081086;28;20075;-78
2022/08/04 07:37:26;;;;;;;2.47;1.75;;;24.50;99.90;;;;;;5081395;28;20021;-78
2022/08/04 07:39:52;;;;;;;4.32;2.00;;;24.70;99.90;;;;;;5080729;28;20021;-81
2022/08/04 07:42:18;;;;;;;1.67;1.30;;;24.80;99.90;;;;;;5082050;28;20025;-79
2022/08/04 07:44:45;;;;;;;2.42;1.55;;;24.90;99.90;;;;;;5083187;28;20081;-78
2022/08/04 07:47:12;;;;;;;6.53;2.00;;;25.00;99.90;;;;;;5082431;28;20020;-78
2022/08/04 07:49:39;;;;;;;4.28;2.42;;;25.00;99.90;;;;;;5082466;28;20048;-79
2022/08/04 07:52:06;;;;;;;2.50;1.75;;;25.00;99.90;;;;;;5081542;28;20029;-79
2022/08/04 07:54:32;;;;;;;5.28;2.00;;;25.10;99.90;;;;;;5081687;28;20031;-80
2022/08/04 07:56:58;;;;;;;2.65;1.63;;;25.20;99.90;;;;;;5080670;28;20025;-78
2022/08/04 07:59:24;;;;;;;2.58;1.50;;;25.20;99.90;;;;;;5083396;28;20025;-75
2022/08/04 08:01:50;;;;;;;1.92;1.50;;;25.30;99.90;;;;;;5081315;28;20020;-78
2022/08/04 08:04:16;;;;;;;5.35;2.03;;;25.30;99.90;;;;;;5077608;28;20035;-81
2022/08/04 08:06:42;;;;;;;3.83;1.50;;;25.40;99.90;;;;;;5081251;28;20040;-78
2022/08/04 08:09:22;;;;;;;4.90;1.88;;;25.60;99.90;;;;;;5077381;28;20143;-79
2022/08/04 08:11:50;;;;;;;4.13;1.63;;;25.70;99.90;;;;;;5082322;28;20563;-77
2022/08/04 08:14:17;;;;;;;6.53;1.33;;;25.90;99.90;;;;;;5083262;28;20119;-78
2022/08/04 08:16:43;;;;;;;10.13;1.40;;;26.00;99.90;;;;;;5080051;28;20035;-80
2022/08/04 08:19:10;;;;;;;4.75;1.92;;;26.10;99.90;;;;;;5081483;28;20031;-79
2022/08/04 08:21:36;;;;;;;1.98;1.20;;;26.20;99.90;;;;;;5080689;28;20503;-77
2022/08/04 08:24:02;;;;;;;7.05;1.75;;;26.30;99.90;;;;;;5081425;28;20032;-81
2022/08/04 08:26:29;;;;;;;2.45;1.65;;;26.40;99.90;;;;;;5080368;28;20432;-78
2022/08/04 08:28:55;;;;;;;2.65;1.30;;;26.50;99.90;;;;;;5078235;28;20037;-79
2022/08/04 08:31:21;;;;;;;3.67;1.52;;;26.60;99.90;;;;;;5081479;28;20080;-80
2022/08/04 08:33:49;;;;;;;7.53;1.40;;;26.70;99.90;;;;;;5080332;28;20036;-77
2022/08/04 08:36:26;;;;;;;11.23;2.05;;;26.70;99.90;;;;;;5081670;28;20026;-79
2022/08/04 08:39:01;;;;;;;3.38;1.25;;;26.80;99.90;;;;;;5079641;28;20039;-79
2022/08/04 08:41:32;;;;;;;3.85;1.63;;;26.90;99.90;;;;;;5079917;28;20025;-78
2022/08/04 08:45:07;;;;;;;;;;;;;;;;;;;;;
2022/08/04 08:48:18;;;;;;;10.25;1.55;;;27.20;99.90;;;;;;5080794;28;20115;-77
2022/08/04 08:51:06;;;;;;;1.92;1.00;;;27.40;99.90;;;;;;5079183;28;20047;-78
2022/08/04 08:53:50;;;;;;;9.40;1.42;;;27.50;99.90;;;;;;5077592;28;20032;-76
2022/08/04 08:56:24;;;;;;;1.67;1.15;;;27.60;99.90;;;;;;5075903;28;20078;-76
2022/08/04 08:59:19;;;;;;;3.05;1.23;;;27.80;99.90;;;;;;5074288;28;20066;-77
2022/08/04 09:01:44;;;;;;;;;;;28.00;99.90;;;;;;5080183;28;20043;-76
2022/08/04 09:04:47;;;;;;;2.25;1.25;;;28.30;99.90;;;;;;5079537;28;19904;-77
2022/08/04 09:07:32;;;;;;;1.92;1.10;;;28.50;99.90;;;;;;5073440;28;20048;-77
2022/08/04 09:09:58;;;;;;;8.43;1.85;;;28.60;99.90;;;;;;5077833;28;20066;-76
2022/08/04 09:12:45;;;;;;;2.15;0.98;;;28.70;99.90;;;;;;5075688;28;20033;-75
2022/08/04 09:15:17;;;;;;;4.03;1.05;;;28.90;99.90;;;;;;5080135;28;20532;-78
2022/08/04 09:17:48;;;;;;;10.25;1.67;;;28.90;99.90;;;;;;5077620;28;20024;-74
2022/08/04 09:20:48;;;;;;;2.10;1.23;;;29.00;99.90;;;;;;5079310;28;20044;-78
2022/08/04 09:23:20;;;;;;;3.75;1.52;;;29.10;99.90;;;;;;5076941;28;20033;-76
2022/08/04 09:26:02;;;;;;;4.60;1.55;;;29.20;99.90;;;;;;5077989;28;20453;-76
2022/08/04 09:28:34;;;;;;;3.80;1.10;;;29.20;99.90;;;;;;5078840;28;20116;-77
2022/08/04 09:31:10;;;;;;;1.55;1.13;;;29.30;99.90;;;;;;5078228;28;20100;-75
2022/08/04 09:33:35;;;;;;;2.92;1.63;;;29.30;99.90;;;;;;5078592;28;20106;-75
2022/08/04 09:36:25;;;;;;;1.42;1.17;;;29.40;99.90;;;;;;5077991;28;20091;-76
2022/08/04 09:38:59;;;;;;;1.05;0.90;;;29.40;99.90;;;;;;5079649;28;20124;-75
2022/08/04 09:41:56;;;;;;;8.20;1.90;;;29.50;99.90;;;;;;5079476;28;20048;-75
2022/08/04 09:44:52;;;;;;;2.08;1.27;;;29.50;99.90;;;;;;5080881;28;20036;-76
2022/08/04 09:47:34;;;;;;;2.42;1.50;;;29.50;99.90;;;;;;5079676;28;20021;-78
2022/08/04 09:50:13;;;;;;;2.25;1.30;;;29.50;99.90;;;;;;5078932;28;20044;-76
2022/08/04 09:53:12;;;;;;;1.05;0.90;;;29.60;99.90;;;;;;5077273;28;20028;-73
2022/08/04 09:55:47;;;;;;;1.00;0.82;;;29.80;99.90;;;;;;5079482;28;20048;-73
2022/08/04 09:58:31;;;;;;;3.30;1.48;;;29.90;99.90;;;;;;5077250;28;20025;-79
2022/08/04 10:01:06;;;;;;;1.73;1.00;;;30.00;99.90;;;;;;5079478;28;20092;-80
2022/08/04 10:03:36;;;;;;;1.65;1.02;;;30.10;99.90;;;;;;5077949;28;20032;-77
2022/08/04 10:06:33;;;;;;;3.33;1.38;;;30.20;99.90;;;;;;5079879;28;20067;-77
2022/08/04 10:09:10;;;;;;;1.95;1.13;;;30.30;99.90;;;;;;5074529;28;20048;-76
2022/08/04 10:11:56;;;;;;;2.42;1.15;;;30.50;99.90;;;;;;5080469;28;20020;-75
2022/08/04 10:14:35;;;;;;;2.28;0.90;;;30.60;99.90;;;;;;5082944;28;20102;-74
2022/08/04 10:17:11;;;;;;;1.70;1.10;;;30.70;99.90;;;;;;5080322;28;20461;-76
2022/08/04 10:19:40;;;;;;;4.22;1.65;;;30.80;99.90;;;;;;5081795;28;20508;-79
2022/08/04 10:22:19;;;;;;;6.18;1.35;;;30.80;99.90;;;;;;5082146;28;20024;-71
2022/08/04 10:25:14;;;;;;;1.83;1.08;;;31.00;99.90;;;;;;5083091;28;20092;-78
2022/08/04 10:27:49;;;;;;;2.00;1.23;;;31.00;99.90;;;;;;5084883;28;20029;-83
2022/08/04 10:30:17;;;;;;;1.55;1.05;;;31.10;99.90;;;;;;5084049;28;20100;-74
2022/08/04 10:33:05;;;;;;;1.80;1.13;;;31.10;99.90;;;;;;5080468;28;20020;-77
2022/08/04 10:35:48;;;;;;;2.35;1.38;;;31.20;99.90;;;;;;5081215;28;20073;-75
2022/08/04 10:38:29;;;;;;;3.00;1.43;;;31.40;99.90;;;;;;5077369;28;20405;-74
2022/08/04 10:41:15;;;;;;;5.05;1.60;;;31.50;99.90;;;;;;5084192;28;20103;-76
2022/08/04 10:43:53;;;;;;;3.17;1.50;;;31.60;99.90;;;;;;5084903;28;20468;-78
2022/08/04 10:46:41;;;;;;;19.60;1.33;;;31.70;99.90;;;;;;5083765;28;20029;-78
2022/08/04 10:49:21;;;;;;;3.67;1.67;;;31.80;99.90;;;;;;5079846;28;20040;-77
2022/08/04 10:51:52;;;;;;;2.95;1.38;;;31.90;99.90;;;;;;5079221;28;20157;-76
2022/08/04 10:54:42;;;;;;;1.13;1.02;;;32.00;99.90;;;;;;5082815;28;20027;-79
2022/08/04 10:57:14;;;;;;;5.00;1.52;;;32.10;99.90;;;;;;5082414;28;20035;-77
2022/08/04 11:00:08;;;;;;;3.80;1.65;;;32.10;99.90;;;;;;5081715;28;20029;-77
2022/08/04 11:02:58;;;;;;;1.23;1.08;;;32.10;99.90;;;;;;5080322;28;21709;-77
2022/08/04 11:05:30;;;;;;;1.77;1.20;;;32.20;99.90;;;;;;5084161;28;20103;-80
2022/08/04 11:08:02;;;;;;;3.25;1.60;;;32.30;99.90;;;;;;5080987;28;20041;-77
2022/08/04 11:10:31;;;;;;;1.58;1.10;;;32.40;99.90;;;;;;5078989;28;20063;-78
2022/08/04 11:13:06;;;;;;;1.73;1.30;;;32.50;99.90;;;;;;5078691;28;20028;-77
2022/08/04 11:15:54;;;;;;;0.77;0.77;;;32.70;99.90;;;;;;5083906;28;20032;-76
2022/08/04 11:18:23;;;;;;;6.15;1.02;;;32.80;99.90;;;;;;5082395;28;20668;-76
2022/08/04 11:21:11;;;;;;;5.30;1.20;;;33.00;99.90;;;;;;5080884;28;20032;-78
2022/08/04 11:23:43;;;;;;;4.55;1.40;;;33.20;99.90;;;;;;5080183;28;20137;-76
2022/08/04 11:26:23;;;;;;;1.80;1.23;;;33.30;99.90;;;;;;5083187;28;20499;-77
2022/08/04 11:29:11;;;;;;;1.63;1.00;;;33.40;99.90;;;;;;5079464;28;20032;-74
2022/08/04 11:31:42;;;;;;;1.60;1.15;;;33.50;99.90;;;;;;5083288;28;20040;-83
2022/08/04 11:34:18;;;;;;;1.42;1.05;;;33.60;99.90;;;;;;5082360;28;20036;-80
2022/08/04 11:36:51;;;;;;;1.83;0.95;;;33.60;99.90;;;;;;5083100;28;20020;-81
2022/08/04 11:39:36;;;;;;;2.20;1.17;;;33.70;99.90;;;;;;5082388;28;20016;-76
2022/08/04 11:42:36;;;;;;;1.50;1.02;;;33.90;99.90;;;;;;5083075;28;20258;-77
2022/08/04 11:45:08;;;;;;;3.05;1.20;;;34.00;99.90;;;;;;5082348;28;20115;-78
2022/08/04 11:47:56;;;;;;;3.22;1.08;;;34.20;99.90;;;;;;5082627;28;20115;-78
2022/08/04 11:50:47;;;;;;;2.65;1.70;;;34.40;99.90;;;;;;5080885;28;20079;-75
2022/08/04 11:53:18;;;;;;;1.67;1.02;;;34.40;99.90;;;;;;5080519;28;20052;-80
2022/08/04 11:55:48;;;;;;;9.75;1.30;;;34.60;99.90;;;;;;5082376;28;21352;-72
2022/08/04 11:58:15;;;;;;;2.60;1.10;;;34.70;99.90;;;;;;5083038;28;20047;-78
2022/08/04 12:00:54;;;;;;;1.38;1.02;;;34.80;99.90;;;;;;5083002;28;20032;-75
2022/08/04 12:03:47;;;;;;;2.50;1.00;;;35.00;99.90;;;;;;5082525;28;20028;-82
2022/08/04 12:06:24;;;;;;;1.42;0.73;;;35.10;99.90;;;;;;5081741;28;20036;-76
2022/08/04 12:09:07;;;;;;;1.70;1.10;;;35.20;99.90;;;;;;5082207;28;20043;-74
2022/08/04 12:11:53;;;;;;;3.50;1.30;;;35.30;99.90;;;;;;5078893;28;20230;-78
2022/08/04 12:14:23;;;;;;;2.40;1.48;;;35.20;99.90;;;;;;5082909;28;20027;-75
2022/08/04 12:17:00;;;;;;;2.67;1.02;;;35.30;99.90;;;;;;5081926;28;20460;-82
2022/08/04 12:19:44;;;;;;;1.42;0.90;;;35.30;99.90;;;;;;5079129;28;20088;-77
2022/08/04 12:22:24;;;;;;;3.80;1.17;;;35.30;99.90;;;;;;5077346;28;20059;-77
2022/08/04 12:25:00;;;;;;;2.03;1.00;;;35.30;99.90;;;;;;5081123;28;20025;-74
2022/08/04 12:27:48;;;;;;;2.03;1.10;;;35.40;99.90;;;;;;5080494;28;20028;-79
2022/08/04 12:30:16;;;;;;;2.60;1.15;;;35.40;98.90;;;;;;5082094;28;20036;-79
2022/08/04 12:32:51;;;;;;;1.75;0.82;;;35.40;99.90;;;;;;5082708;28;20031;-78
2022/08/04 12:35:44;;;;;;;3.65;0.82;;;35.40;99.90;;;;;;5078481;28;20099;-77
2022/08/04 12:38:13;;;;;;;0.85;0.70;;;35.70;97.90;;;;;;5081395;28;20037;-78
2022/08/04 12:40:50;;;;;;;1.23;1.00;;;35.80;99.90;;;;;;5079849;28;20050;-73
2022/08/04 12:43:28;;;;;;;1.48;0.80;;;35.90;98.10;;;;;;5081917;28;20024;-83
2022/08/04 12:46:02;;;;;;;1.13;0.95;;;36.10;98.50;;;;;;5081076;28;20139;-77
2022/08/04 12:48:29;;;;;;;2.05;1.00;;;36.30;98.70;;;;;;5080291;28;20032;-78
2022/08/04 12:50:56;;;;;;;0.75;0.60;;;36.50;99.90;;;;;;5080321;28;20044;-77
2022/08/04 12:53:55;;;;;;;2.58;1.10;;;36.70;99.90;;;;;;5079763;28;20059;-76
2022/08/04 12:56:28;;;;;;;1.35;0.88;;;36.90;97.10;;;;;;5077530;28;20125;-82
2022/08/04 12:59:07;;;;;;;1.45;0.80;;;37.00;97.80;;;;;;5078469;28;20394;-74
2022/08/04 13:01:34;;;;;;;3.15;1.10;;;37.10;96.90;;;;;;5080675;28;20025;-78
2022/08/04 13:04:16;;;;;;;6.13;0.80;;;37.20;97.90;;;;;;5076489;28;20920;-77
2022/08/04 13:06:50;;;;;;;1.33;1.00;;;37.20;97.60;;;;;;5077505;28;20435;-77
2022/08/04 13:09:17;;;;;;;;;;;37.00;97.00;;;;;;5081737;28;20533;-77
2022/08/04 13:11:50;;;;;;;1.85;0.93;;;36.80;94.70;;;;;;5081092;28;19919;-78
2022/08/04 13:14:17;;;;;;;1.58;1.00;;;36.40;96.60;;;;;;5080821;28;20019;-78
2022/08/04 13:16:43;;;;;;;1.48;0.82;;;36.10;97.70;;;;;;5081133;28;20449;-73
2022/08/04 13:19:10;;;;;;;1.75;1.10;;;36.20;97.50;;;;;;5075979;28;20048;-79
2022/08/04 13:21:42;;;;;;;2.20;1.27;;;36.20;98.00;;;;;;5079977;28;20036;-77
2022/08/04 13:24:16;;;;;;;3.78;1.30;;;36.00;97.00;;;;;;5079929;28;20036;-78
2022/08/04 13:26:54;;;;;;;2.08;1.45;;;35.70;97.00;;;;;;5077324;28;20040;-83
2022/08/04 13:29:22;;;;;;;3.42;1.27;;;35.40;99.60;;;;;;5078994;28;20043;-79
2022/08/04 13:31:49;;;;;;;2.75;1.90;;;35.30;99.90;;;;;;5080702;28;20064;-81
2022/08/04 13:34:16;;;;;;;4.90;1.52;;;35.40;99.90;;;;;;5076857;28;20029;-77
2022/08/04 13:36:43;;;;;;;4.45;1.55;;;35.40;99.90;;;;;;5079489;28;20103;-79
2022/08/04 13:39:18;;;;;;;1.95;1.50;;;35.30;99.90;;;;;;5080983;28;20036;-84
2022/08/04 13:41:47;;;;;;;2.60;1.38;;;35.40;99.90;;;;;;5080435;28;20033;-82